sensor_id;sensor_type;location;lat;lon;timestamp;temperature;humidity
3069;DHT22;1545;51.728;8.796;2022-07-25T00:00:13;22.90;67.90
3069;DHT22;1545;51.728;8.796;2022-07-25T00:02:38;22.90;67.80
3069;DHT22;1545;51.728;8.796;2022-07-25T00:05:04;22.90;67.90
3069;DHT22;1545;51.728;8.796;2022-07-25T00:07:30;22.90;67.80
3069;DHT22;1545;51.728;8.796;2022-07-25T00:09:55;22.90;67.70
3069;DHT22;1545;51.728;8.796;2022-07-25T00:12:21;22.90;67.80
3069;DHT22;1545;51.728;8.796;2022-07-25T00:14:47;22.90;67.50
3069;DHT22;1545;51.728;8.796;2022-07-25T00:17:12;22.80;67.60
3069;DHT22;1545;51.728;8.796;2022-07-25T00:19:38;22.80;67.80
3069;DHT22;1545;51.728;8.796;2022-07-25T00:22:04;22.80;67.70
3069;DHT22;1545;51.728;8.796;2022-07-25T00:24:30;22.70;67.90
3069;DHT22;1545;51.728;8.796;2022-07-25T00:26:55;22.70;67.90
3069;DHT22;1545;51.728;8.796;2022-07-25T00:29:21;22.70;67.80
3069;DHT22;1545;51.728;8.796;2022-07-25T00:31:48;22.70;67.90
3069;DHT22;1545;51.728;8.796;2022-07-25T00:34:14;22.70;68.00
3069;DHT22;1545;51.728;8.796;2022-07-25T00:36:39;22.70;67.90
3069;DHT22;1545;51.728;8.796;2022-07-25T00:39:07;22.70;68.00
3069;DHT22;1545;51.728;8.796;2022-07-25T00:41:33;22.70;68.00
3069;DHT22;1545;51.728;8.796;2022-07-25T00:43:59;22.70;67.90
3069;DHT22;1545;51.728;8.796;2022-07-25T00:46:24;22.70;68.00
3069;DHT22;1545;51.728;8.796;2022-07-25T00:48:50;22.70;68.00
3069;DHT22;1545;51.728;8.796;2022-07-25T00:51:16;22.70;67.70
3069;DHT22;1545;51.728;8.796;2022-07-25T00:53:42;22.70;67.80
3069;DHT22;1545;51.728;8.796;2022-07-25T00:56:08;22.70;67.80
3069;DHT22;1545;51.728;8.796;2022-07-25T00:58:34;22.60;67.80
3069;DHT22;1545;51.728;8.796;2022-07-25T01:01:03;22.60;67.70
3069;DHT22;1545;51.728;8.796;2022-07-25T01:03:29;22.60;67.70
3069;DHT22;1545;51.728;8.796;2022-07-25T01:05:54;22.60;67.60
3069;DHT22;1545;51.728;8.796;2022-07-25T01:08:21;22.60;67.50
3069;DHT22;1545;51.728;8.796;2022-07-25T01:10:47;22.60;67.60
3069;DHT22;1545;51.728;8.796;2022-07-25T01:13:19;22.60;67.70
3069;DHT22;1545;51.728;8.796;2022-07-25T01:15:45;22.60;67.80
3069;DHT22;1545;51.728;8.796;2022-07-25T01:18:10;22.60;67.60
3069;DHT22;1545;51.728;8.796;2022-07-25T01:20:36;22.50;68.00
3069;DHT22;1545;51.728;8.796;2022-07-25T01:23:02;22.50;67.90
3069;DHT22;1545;51.728;8.796;2022-07-25T01:25:27;22.60;67.60
3069;DHT22;1545;51.728;8.796;2022-07-25T01:27:53;22.60;67.50
3069;DHT22;1545;51.728;8.796;2022-07-25T01:30:20;22.60;67.50
3069;DHT22;1545;51.728;8.796;2022-07-25T01:32:46;22.50;67.70
3069;DHT22;1545;51.728;8.796;2022-07-25T01:35:13;22.50;67.60
3069;DHT22;1545;51.728;8.796;2022-07-25T01:37:39;22.60;67.50
3069;DHT22;1545;51.728;8.796;2022-07-25T01:40:06;22.60;67.20
3069;DHT22;1545;51.728;8.796;2022-07-25T01:42:31;22.60;67.30
3069;DHT22;1545;51.728;8.796;2022-07-25T01:44:57;22.60;67.40
3069;DHT22;1545;51.728;8.796;2022-07-25T01:47:23;22.60;67.30
3069;DHT22;1545;51.728;8.796;2022-07-25T01:49:49;22.60;67.20
3069;DHT22;1545;51.728;8.796;2022-07-25T01:52:14;22.60;67.10
3069;DHT22;1545;51.728;8.796;2022-07-25T01:54:40;22.70;67.00
3069;DHT22;1545;51.728;8.796;2022-07-25T01:57:06;22.70;66.80
3069;DHT22;1545;51.728;8.796;2022-07-25T01:59:35;22.70;66.90
3069;DHT22;1545;51.728;8.796;2022-07-25T02:02:01;22.70;67.10
3069;DHT22;1545;51.728;8.796;2022-07-25T02:04:26;22.60;67.10
3069;DHT22;1545;51.728;8.796;2022-07-25T02:06:52;22.60;67.20
3069;DHT22;1545;51.728;8.796;2022-07-25T02:09:19;22.60;67.50
3069;DHT22;1545;51.728;8.796;2022-07-25T02:11:44;22.50;67.70
3069;DHT22;1545;51.728;8.796;2022-07-25T02:14:10;22.50;67.70
3069;DHT22;1545;51.728;8.796;2022-07-25T02:16:36;22.40;68.00
3069;DHT22;1545;51.728;8.796;2022-07-25T02:19:02;22.40;67.80
3069;DHT22;1545;51.728;8.796;2022-07-25T02:21:27;22.40;67.60
3069;DHT22;1545;51.728;8.796;2022-07-25T02:23:53;22.40;67.60
3069;DHT22;1545;51.728;8.796;2022-07-25T02:26:19;22.40;67.60
3069;DHT22;1545;51.728;8.796;2022-07-25T02:28:44;22.40;67.60
3069;DHT22;1545;51.728;8.796;2022-07-25T02:31:10;22.40;67.80
3069;DHT22;1545;51.728;8.796;2022-07-25T02:33:36;22.40;67.80
3069;DHT22;1545;51.728;8.796;2022-07-25T02:36:02;22.40;67.70
3069;DHT22;1545;51.728;8.796;2022-07-25T02:38:28;22.50;67.70
3069;DHT22;1545;51.728;8.796;2022-07-25T02:40:53;22.50;67.50
3069;DHT22;1545;51.728;8.796;2022-07-25T02:43:19;22.50;67.30
3069;DHT22;1545;51.728;8.796;2022-07-25T02:45:45;22.60;67.20
3069;DHT22;1545;51.728;8.796;2022-07-25T02:48:11;22.60;67.10
3069;DHT22;1545;51.728;8.796;2022-07-25T02:50:37;22.60;66.80
3069;DHT22;1545;51.728;8.796;2022-07-25T02:53:04;22.70;66.80
3069;DHT22;1545;51.728;8.796;2022-07-25T02:55:30;22.70;66.70
3069;DHT22;1545;51.728;8.796;2022-07-25T02:57:56;22.70;66.30
3069;DHT22;1545;51.728;8.796;2022-07-25T03:00:22;22.70;66.50
3069;DHT22;1545;51.728;8.796;2022-07-25T03:02:47;22.70;66.70
3069;DHT22;1545;51.728;8.796;2022-07-25T03:05:14;22.70;66.80
3069;DHT22;1545;51.728;8.796;2022-07-25T03:07:41;22.60;66.90
3069;DHT22;1545;51.728;8.796;2022-07-25T03:10:08;22.60;67.00
3069;DHT22;1545;51.728;8.796;2022-07-25T03:12:34;22.60;67.00
3069;DHT22;1545;51.728;8.796;2022-07-25T03:15:01;22.60;67.20
3069;DHT22;1545;51.728;8.796;2022-07-25T03:17:27;22.50;67.50
3069;DHT22;1545;51.728;8.796;2022-07-25T03:19:53;22.50;67.60
3069;DHT22;1545;51.728;8.796;2022-07-25T03:22:19;22.50;67.50
3069;DHT22;1545;51.728;8.796;2022-07-25T03:24:45;22.50;67.50
3069;DHT22;1545;51.728;8.796;2022-07-25T03:27:10;22.50;67.60
3069;DHT22;1545;51.728;8.796;2022-07-25T03:29:36;22.40;67.80
3069;DHT22;1545;51.728;8.796;2022-07-25T03:32:04;22.40;67.90
3069;DHT22;1545;51.728;8.796;2022-07-25T03:34:30;22.40;68.00
3069;DHT22;1545;51.728;8.796;2022-07-25T03:36:55;22.40;67.90
3069;DHT22;1545;51.728;8.796;2022-07-25T03:39:21;22.40;67.90
3069;DHT22;1545;51.728;8.796;2022-07-25T03:41:49;22.40;67.90
3069;DHT22;1545;51.728;8.796;2022-07-25T03:44:14;22.30;68.10
3069;DHT22;1545;51.728;8.796;2022-07-25T03:46:40;22.30;67.90
3069;DHT22;1545;51.728;8.796;2022-07-25T03:49:06;22.40;67.80
3069;DHT22;1545;51.728;8.796;2022-07-25T03:51:31;22.40;67.70
3069;DHT22;1545;51.728;8.796;2022-07-25T03:53:57;22.50;67.60
3069;DHT22;1545;51.728;8.796;2022-07-25T03:56:46;22.50;67.60
3069;DHT22;1545;51.728;8.796;2022-07-25T03:59:14;22.50;67.50
3069;DHT22;1545;51.728;8.796;2022-07-25T04:01:40;22.50;67.70
3069;DHT22;1545;51.728;8.796;2022-07-25T04:04:06;22.40;67.90
3069;DHT22;1545;51.728;8.796;2022-07-25T04:06:32;22.40;68.20
3069;DHT22;1545;51.728;8.796;2022-07-25T04:08:58;22.40;68.10
3069;DHT22;1545;51.728;8.796;2022-07-25T04:11:24;22.50;67.70
3069;DHT22;1545;51.728;8.796;2022-07-25T04:13:50;23.00;66.60
3069;DHT22;1545;51.728;8.796;2022-07-25T04:16:16;23.10;65.90
3069;DHT22;1545;51.728;8.796;2022-07-25T04:18:42;22.90;66.70
3069;DHT22;1545;51.728;8.796;2022-07-25T04:21:07;22.70;67.40
3069;DHT22;1545;51.728;8.796;2022-07-25T04:23:33;22.70;67.40
3069;DHT22;1545;51.728;8.796;2022-07-25T04:25:59;22.70;67.50
3069;DHT22;1545;51.728;8.796;2022-07-25T04:28:25;22.90;67.20
3069;DHT22;1545;51.728;8.796;2022-07-25T04:30:51;22.90;67.30
3069;DHT22;1545;51.728;8.796;2022-07-25T04:33:17;22.90;67.30
3069;DHT22;1545;51.728;8.796;2022-07-25T04:35:42;22.80;67.90
3069;DHT22;1545;51.728;8.796;2022-07-25T04:38:08;22.70;68.20
3069;DHT22;1545;51.728;8.796;2022-07-25T04:40:34;22.70;68.40
3069;DHT22;1545;51.728;8.796;2022-07-25T04:42:59;22.70;68.40
3069;DHT22;1545;51.728;8.796;2022-07-25T04:45:25;22.70;68.60
3069;DHT22;1545;51.728;8.796;2022-07-25T04:47:51;23.20;67.60
3069;DHT22;1545;51.728;8.796;2022-07-25T04:50:16;24.00;65.30
3069;DHT22;1545;51.728;8.796;2022-07-25T04:52:42;25.00;62.40
3069;DHT22;1545;51.728;8.796;2022-07-25T04:55:09;25.80;60.20
3069;DHT22;1545;51.728;8.796;2022-07-25T04:57:35;26.30;59.00
3069;DHT22;1545;51.728;8.796;2022-07-25T05:00:02;26.40;58.50
3069;DHT22;1545;51.728;8.796;2022-07-25T05:02:27;26.60;58.30
3069;DHT22;1545;51.728;8.796;2022-07-25T05:04:53;26.90;57.30
3069;DHT22;1545;51.728;8.796;2022-07-25T05:07:18;27.00;57.00
3069;DHT22;1545;51.728;8.796;2022-07-25T05:09:44;27.20;56.50
3069;DHT22;1545;51.728;8.796;2022-07-25T05:12:10;27.10;56.90
3069;DHT22;1545;51.728;8.796;2022-07-25T05:14:36;27.10;57.00
3069;DHT22;1545;51.728;8.796;2022-07-25T05:17:02;27.20;56.70
3069;DHT22;1545;51.728;8.796;2022-07-25T05:19:28;27.10;57.10
3069;DHT22;1545;51.728;8.796;2022-07-25T05:21:53;27.00;57.60
3069;DHT22;1545;51.728;8.796;2022-07-25T05:24:19;27.30;56.70
3069;DHT22;1545;51.728;8.796;2022-07-25T05:26:44;27.50;56.30
3069;DHT22;1545;51.728;8.796;2022-07-25T05:29:10;27.60;56.20
3069;DHT22;1545;51.728;8.796;2022-07-25T05:31:36;27.80;56.00
3069;DHT22;1545;51.728;8.796;2022-07-25T05:34:02;27.90;55.60
3069;DHT22;1545;51.728;8.796;2022-07-25T05:36:27;28.20;54.80
3069;DHT22;1545;51.728;8.796;2022-07-25T05:38:53;28.30;55.00
3069;DHT22;1545;51.728;8.796;2022-07-25T05:41:19;28.20;55.00
3069;DHT22;1545;51.728;8.796;2022-07-25T05:43:45;28.20;55.20
3069;DHT22;1545;51.728;8.796;2022-07-25T05:46:12;28.40;54.90
3069;DHT22;1545;51.728;8.796;2022-07-25T05:48:38;28.80;54.10
3069;DHT22;1545;51.728;8.796;2022-07-25T05:51:03;29.00;53.70
3069;DHT22;1545;51.728;8.796;2022-07-25T05:53:28;29.10;53.50
3069;DHT22;1545;51.728;8.796;2022-07-25T05:55:54;29.10;53.20
3069;DHT22;1545;51.728;8.796;2022-07-25T05:58:20;29.50;52.60
3069;DHT22;1545;51.728;8.796;2022-07-25T06:00:45;29.60;52.80
3069;DHT22;1545;51.728;8.796;2022-07-25T06:03:10;29.60;52.90
3069;DHT22;1545;51.728;8.796;2022-07-25T06:05:36;29.80;52.60
3069;DHT22;1545;51.728;8.796;2022-07-25T06:08:01;30.00;52.10
3069;DHT22;1545;51.728;8.796;2022-07-25T06:10:27;30.40;50.80
3069;DHT22;1545;51.728;8.796;2022-07-25T06:12:53;30.90;50.30
3069;DHT22;1545;51.728;8.796;2022-07-25T06:15:18;31.80;48.50
3069;DHT22;1545;51.728;8.796;2022-07-25T06:17:44;32.50;47.10
3069;DHT22;1545;51.728;8.796;2022-07-25T06:20:10;32.90;46.10
3069;DHT22;1545;51.728;8.796;2022-07-25T06:22:37;33.10;45.80
3069;DHT22;1545;51.728;8.796;2022-07-25T06:25:03;32.80;46.20
3069;DHT22;1545;51.728;8.796;2022-07-25T06:27:28;33.00;46.10
3069;DHT22;1545;51.728;8.796;2022-07-25T06:29:54;33.50;45.30
3069;DHT22;1545;51.728;8.796;2022-07-25T06:32:19;33.20;45.20
3069;DHT22;1545;51.728;8.796;2022-07-25T06:34:45;33.30;45.20
3069;DHT22;1545;51.728;8.796;2022-07-25T06:37:10;33.10;45.40
3069;DHT22;1545;51.728;8.796;2022-07-25T06:39:36;33.40;45.10
3069;DHT22;1545;51.728;8.796;2022-07-25T06:42:01;33.60;45.00
3069;DHT22;1545;51.728;8.796;2022-07-25T06:44:31;34.20;44.20
3069;DHT22;1545;51.728;8.796;2022-07-25T06:46:57;34.50;44.10
3069;DHT22;1545;51.728;8.796;2022-07-25T06:49:22;35.00;43.10
3069;DHT22;1545;51.728;8.796;2022-07-25T06:51:48;35.70;42.60
3069;DHT22;1545;51.728;8.796;2022-07-25T06:54:13;36.90;41.30
3069;DHT22;1545;51.728;8.796;2022-07-25T06:56:39;37.40;40.50
3069;DHT22;1545;51.728;8.796;2022-07-25T06:59:06;38.40;39.10
3069;DHT22;1545;51.728;8.796;2022-07-25T07:01:32;39.50;38.10
3069;DHT22;1545;51.728;8.796;2022-07-25T07:03:57;40.30;37.30
3069;DHT22;1545;51.728;8.796;2022-07-25T07:06:23;40.40;36.60
3069;DHT22;1545;51.728;8.796;2022-07-25T07:08:48;40.20;37.20
3069;DHT22;1545;51.728;8.796;2022-07-25T07:11:13;40.60;36.80
3069;DHT22;1545;51.728;8.796;2022-07-25T07:13:41;41.40;35.90
3069;DHT22;1545;51.728;8.796;2022-07-25T07:16:07;41.40;35.80
3069;DHT22;1545;51.728;8.796;2022-07-25T07:18:32;41.20;35.70
3069;DHT22;1545;51.728;8.796;2022-07-25T07:20:58;41.60;35.50
3069;DHT22;1545;51.728;8.796;2022-07-25T07:23:23;42.10;35.30
3069;DHT22;1545;51.728;8.796;2022-07-25T07:25:49;42.60;34.60
3069;DHT22;1545;51.728;8.796;2022-07-25T07:28:15;43.00;34.30
3069;DHT22;1545;51.728;8.796;2022-07-25T07:30:41;42.90;34.40
3069;DHT22;1545;51.728;8.796;2022-07-25T07:33:07;43.20;33.80
3069;DHT22;1545;51.728;8.796;2022-07-25T07:35:32;43.20;34.00
3069;DHT22;1545;51.728;8.796;2022-07-25T07:37:58;43.30;34.00
3069;DHT22;1545;51.728;8.796;2022-07-25T07:40:23;43.10;34.00
3069;DHT22;1545;51.728;8.796;2022-07-25T07:42:51;43.30;34.00
3069;DHT22;1545;51.728;8.796;2022-07-25T07:45:19;43.10;34.10
3069;DHT22;1545;51.728;8.796;2022-07-25T07:47:49;42.70;34.30
3069;DHT22;1545;51.728;8.796;2022-07-25T07:50:17;42.30;34.30
3069;DHT22;1545;51.728;8.796;2022-07-25T07:52:44;42.50;34.70
3069;DHT22;1545;51.728;8.796;2022-07-25T07:55:10;42.30;34.30
3069;DHT22;1545;51.728;8.796;2022-07-25T07:57:55;42.60;34.20
3069;DHT22;1545;51.728;8.796;2022-07-25T08:00:21;42.90;33.60
3069;DHT22;1545;51.728;8.796;2022-07-25T08:02:51;42.70;33.50
3069;DHT22;1545;51.728;8.796;2022-07-25T08:05:24;42.60;33.70
3069;DHT22;1545;51.728;8.796;2022-07-25T08:07:50;42.10;34.40
3069;DHT22;1545;51.728;8.796;2022-07-25T08:10:25;41.90;34.40
3069;DHT22;1545;51.728;8.796;2022-07-25T08:12:51;41.40;34.70
3069;DHT22;1545;51.728;8.796;2022-07-25T08:15:18;41.30;35.00
3069;DHT22;1545;51.728;8.796;2022-07-25T08:17:45;41.40;35.00
3069;DHT22;1545;51.728;8.796;2022-07-25T08:20:12;41.50;35.00
3069;DHT22;1545;51.728;8.796;2022-07-25T08:22:40;41.50;34.70
3069;DHT22;1545;51.728;8.796;2022-07-25T08:25:12;41.70;34.60
3069;DHT22;1545;51.728;8.796;2022-07-25T08:27:38;41.50;34.90
3069;DHT22;1545;51.728;8.796;2022-07-25T08:30:06;41.20;35.20
3069;DHT22;1545;51.728;8.796;2022-07-25T08:32:32;40.70;35.50
3069;DHT22;1545;51.728;8.796;2022-07-25T08:34:59;40.20;36.00
3069;DHT22;1545;51.728;8.796;2022-07-25T08:37:26;40.40;36.10
3069;DHT22;1545;51.728;8.796;2022-07-25T08:39:52;40.50;36.50
3069;DHT22;1545;51.728;8.796;2022-07-25T08:42:19;39.90;36.10
3069;DHT22;1545;51.728;8.796;2022-07-25T08:44:57;39.30;36.70
3069;DHT22;1545;51.728;8.796;2022-07-25T08:47:24;39.20;36.80
3069;DHT22;1545;51.728;8.796;2022-07-25T08:49:50;39.10;36.90
3069;DHT22;1545;51.728;8.796;2022-07-25T08:52:17;39.40;36.80
3069;DHT22;1545;51.728;8.796;2022-07-25T08:54:44;40.10;36.70
3069;DHT22;1545;51.728;8.796;2022-07-25T08:57:10;41.20;35.50
3069;DHT22;1545;51.728;8.796;2022-07-25T08:59:36;42.20;34.60
3069;DHT22;1545;51.728;8.796;2022-07-25T09:02:01;42.40;34.30
3069;DHT22;1545;51.728;8.796;2022-07-25T09:04:32;43.00;33.90
3069;DHT22;1545;51.728;8.796;2022-07-25T09:06:59;43.40;33.20
3069;DHT22;1545;51.728;8.796;2022-07-25T09:09:33;43.00;33.40
3069;DHT22;1545;51.728;8.796;2022-07-25T09:11:59;42.30;33.90
3069;DHT22;1545;51.728;8.796;2022-07-25T09:14:25;41.60;34.80
3069;DHT22;1545;51.728;8.796;2022-07-25T09:16:52;41.70;34.80
3069;DHT22;1545;51.728;8.796;2022-07-25T09:19:19;41.40;35.30
3069;DHT22;1545;51.728;8.796;2022-07-25T09:24:23;41.30;34.50
3069;DHT22;1545;51.728;8.796;2022-07-25T09:26:51;41.00;34.50
3069;DHT22;1545;51.728;8.796;2022-07-25T09:29:25;40.20;35.30
3069;DHT22;1545;51.728;8.796;2022-07-25T09:31:53;39.90;36.10
3069;DHT22;1545;51.728;8.796;2022-07-25T09:34:40;39.30;36.40
3069;DHT22;1545;51.728;8.796;2022-07-25T09:37:07;38.70;36.80
3069;DHT22;1545;51.728;8.796;2022-07-25T09:39:42;38.30;37.20
3069;DHT22;1545;51.728;8.796;2022-07-25T09:42:16;38.20;37.40
3069;DHT22;1545;51.728;8.796;2022-07-25T09:44:42;38.60;37.30
3069;DHT22;1545;51.728;8.796;2022-07-25T09:47:12;38.70;37.20
3069;DHT22;1545;51.728;8.796;2022-07-25T09:49:40;38.60;36.80
3069;DHT22;1545;51.728;8.796;2022-07-25T09:52:06;38.10;37.40
3069;DHT22;1545;51.728;8.796;2022-07-25T09:54:31;37.90;38.10
3069;DHT22;1545;51.728;8.796;2022-07-25T09:56:57;37.80;37.90
3069;DHT22;1545;51.728;8.796;2022-07-25T09:59:23;37.70;38.10
3069;DHT22;1545;51.728;8.796;2022-07-25T10:01:57;37.30;38.40
3069;DHT22;1545;51.728;8.796;2022-07-25T10:05:08;37.10;38.50
3069;DHT22;1545;51.728;8.796;2022-07-25T10:07:37;37.10;38.60
3069;DHT22;1545;51.728;8.796;2022-07-25T10:10:03;37.00;39.00
3069;DHT22;1545;51.728;8.796;2022-07-25T10:12:29;36.50;39.40
3069;DHT22;1545;51.728;8.796;2022-07-25T10:15:12;36.00;39.90
3069;DHT22;1545;51.728;8.796;2022-07-25T10:17:39;35.50;40.70
3069;DHT22;1545;51.728;8.796;2022-07-25T10:20:07;35.30;41.20
3069;DHT22;1545;51.728;8.796;2022-07-25T10:25:16;34.80;41.60
3069;DHT22;1545;51.728;8.796;2022-07-25T10:27:46;34.40;42.50
3069;DHT22;1545;51.728;8.796;2022-07-25T10:30:38;34.10;42.90
3069;DHT22;1545;51.728;8.796;2022-07-25T10:35:35;33.90;43.80
3069;DHT22;1545;51.728;8.796;2022-07-25T10:38:05;33.90;44.00
3069;DHT22;1545;51.728;8.796;2022-07-25T10:40:43;34.10;43.60
3069;DHT22;1545;51.728;8.796;2022-07-25T10:43:20;34.50;43.70
3069;DHT22;1545;51.728;8.796;2022-07-25T10:45:57;34.80;42.90
3069;DHT22;1545;51.728;8.796;2022-07-25T10:48:31;34.90;42.50
3069;DHT22;1545;51.728;8.796;2022-07-25T10:51:07;35.10;42.60
3069;DHT22;1545;51.728;8.796;2022-07-25T10:53:45;35.10;42.30
3069;DHT22;1545;51.728;8.796;2022-07-25T10:56:16;35.00;42.50
3069;DHT22;1545;51.728;8.796;2022-07-25T10:59:04;35.00;42.10
3069;DHT22;1545;51.728;8.796;2022-07-25T11:01:33;34.90;42.10
3069;DHT22;1545;51.728;8.796;2022-07-25T11:04:04;34.80;42.50
3069;DHT22;1545;51.728;8.796;2022-07-25T11:06:41;34.60;43.00
3069;DHT22;1545;51.728;8.796;2022-07-25T11:09:24;34.40;42.80
3069;DHT22;1545;51.728;8.796;2022-07-25T11:11:52;34.20;43.10
3069;DHT22;1545;51.728;8.796;2022-07-25T11:14:25;33.90;43.40
3069;DHT22;1545;51.728;8.796;2022-07-25T11:16:55;33.90;44.40
3069;DHT22;1545;51.728;8.796;2022-07-25T11:19:23;34.20;43.70
3069;DHT22;1545;51.728;8.796;2022-07-25T11:21:51;34.40;43.50
3069;DHT22;1545;51.728;8.796;2022-07-25T11:24:17;34.40;43.20
3069;DHT22;1545;51.728;8.796;2022-07-25T11:26:51;34.40;43.30
3069;DHT22;1545;51.728;8.796;2022-07-25T11:29:23;34.20;43.40
3069;DHT22;1545;51.728;8.796;2022-07-25T11:32:09;34.30;43.70
3069;DHT22;1545;51.728;8.796;2022-07-25T11:34:41;34.40;43.40
3069;DHT22;1545;51.728;8.796;2022-07-25T11:37:10;34.60;43.50
3069;DHT22;1545;51.728;8.796;2022-07-25T11:39:38;34.70;43.10
3069;DHT22;1545;51.728;8.796;2022-07-25T11:42:09;34.30;43.30
3069;DHT22;1545;51.728;8.796;2022-07-25T11:44:41;33.80;44.10
3069;DHT22;1545;51.728;8.796;2022-07-25T11:47:09;33.90;44.60
3069;DHT22;1545;51.728;8.796;2022-07-25T11:49:47;33.90;44.60
3069;DHT22;1545;51.728;8.796;2022-07-25T11:52:26;34.00;44.50
3069;DHT22;1545;51.728;8.796;2022-07-25T11:54:55;34.00;44.20
3069;DHT22;1545;51.728;8.796;2022-07-25T11:57:26;33.70;44.50
3069;DHT22;1545;51.728;8.796;2022-07-25T11:59:54;33.20;45.60
3069;DHT22;1545;51.728;8.796;2022-07-25T12:02:31;32.80;45.90
3069;DHT22;1545;51.728;8.796;2022-07-25T12:04:59;32.60;46.80
3069;DHT22;1545;51.728;8.796;2022-07-25T12:07:43;32.50;47.60
3069;DHT22;1545;51.728;8.796;2022-07-25T12:10:18;32.10;49.00
3069;DHT22;1545;51.728;8.796;2022-07-25T12:12:54;31.70;50.00
3069;DHT22;1545;51.728;8.796;2022-07-25T12:15:23;31.20;50.90
3069;DHT22;1545;51.728;8.796;2022-07-25T12:17:50;30.80;52.00
3069;DHT22;1545;51.728;8.796;2022-07-25T12:20:19;30.90;52.40
3069;DHT22;1545;51.728;8.796;2022-07-25T12:22:46;31.00;52.20
3069;DHT22;1545;51.728;8.796;2022-07-25T12:25:12;31.20;52.20
3069;DHT22;1545;51.728;8.796;2022-07-25T12:27:38;31.30;51.30
3069;DHT22;1545;51.728;8.796;2022-07-25T12:30:05;31.50;51.20
3069;DHT22;1545;51.728;8.796;2022-07-25T12:32:31;31.80;51.20
3069;DHT22;1545;51.728;8.796;2022-07-25T12:34:57;32.10;50.50
3069;DHT22;1545;51.728;8.796;2022-07-25T12:37:24;32.40;50.20
3069;DHT22;1545;51.728;8.796;2022-07-25T12:39:50;32.60;49.60
3069;DHT22;1545;51.728;8.796;2022-07-25T12:42:15;32.90;49.30
3069;DHT22;1545;51.728;8.796;2022-07-25T12:44:40;33.40;48.70
3069;DHT22;1545;51.728;8.796;2022-07-25T12:47:06;33.80;47.80
3069;DHT22;1545;51.728;8.796;2022-07-25T12:49:32;34.00;47.00
3069;DHT22;1545;51.728;8.796;2022-07-25T12:51:57;34.00;47.00
3069;DHT22;1545;51.728;8.796;2022-07-25T12:54:23;33.80;47.60
3069;DHT22;1545;51.728;8.796;2022-07-25T12:56:48;33.50;48.10
3069;DHT22;1545;51.728;8.796;2022-07-25T12:59:15;33.10;47.80
3069;DHT22;1545;51.728;8.796;2022-07-25T13:01:40;32.90;48.60
3069;DHT22;1545;51.728;8.796;2022-07-25T13:04:06;32.80;48.90
3069;DHT22;1545;51.728;8.796;2022-07-25T13:06:36;32.80;49.30
3069;DHT22;1545;51.728;8.796;2022-07-25T13:09:03;32.70;49.60
3069;DHT22;1545;51.728;8.796;2022-07-25T13:11:28;32.60;49.60
3069;DHT22;1545;51.728;8.796;2022-07-25T13:13:54;32.30;49.80
3069;DHT22;1545;51.728;8.796;2022-07-25T13:16:19;32.40;50.40
3069;DHT22;1545;51.728;8.796;2022-07-25T13:18:45;32.60;49.40
3069;DHT22;1545;51.728;8.796;2022-07-25T13:21:11;32.80;48.90
3069;DHT22;1545;51.728;8.796;2022-07-25T13:23:36;32.90;49.00
3069;DHT22;1545;51.728;8.796;2022-07-25T13:26:02;33.10;48.50
3069;DHT22;1545;51.728;8.796;2022-07-25T13:28:28;33.40;48.70
3069;DHT22;1545;51.728;8.796;2022-07-25T13:30:54;33.30;47.80
3069;DHT22;1545;51.728;8.796;2022-07-25T13:33:20;33.30;48.10
3069;DHT22;1545;51.728;8.796;2022-07-25T13:35:46;33.10;48.70
3069;DHT22;1545;51.728;8.796;2022-07-25T13:38:11;33.10;49.30
3069;DHT22;1545;51.728;8.796;2022-07-25T13:40:38;33.00;49.10
3069;DHT22;1545;51.728;8.796;2022-07-25T13:43:11;33.00;49.20
3069;DHT22;1545;51.728;8.796;2022-07-25T13:45:36;32.60;49.30
3069;DHT22;1545;51.728;8.796;2022-07-25T13:48:03;32.10;50.50
3069;DHT22;1545;51.728;8.796;2022-07-25T13:50:29;31.80;51.40
3069;DHT22;1545;51.728;8.796;2022-07-25T13:52:54;31.90;51.70
3069;DHT22;1545;51.728;8.796;2022-07-25T13:55:25;32.20;51.50
3069;DHT22;1545;51.728;8.796;2022-07-25T13:57:51;32.10;51.40
3069;DHT22;1545;51.728;8.796;2022-07-25T14:00:16;32.10;52.20
3069;DHT22;1545;51.728;8.796;2022-07-25T14:02:42;32.30;51.30
3069;DHT22;1545;51.728;8.796;2022-07-25T14:05:08;32.40;51.00
3069;DHT22;1545;51.728;8.796;2022-07-25T14:07:34;32.30;51.20
3069;DHT22;1545;51.728;8.796;2022-07-25T14:10:00;32.10;51.40
3069;DHT22;1545;51.728;8.796;2022-07-25T14:12:26;31.90;51.40
3069;DHT22;1545;51.728;8.796;2022-07-25T14:14:52;31.90;51.70
3069;DHT22;1545;51.728;8.796;2022-07-25T14:17:17;31.90;52.00
3069;DHT22;1545;51.728;8.796;2022-07-25T14:19:43;31.70;52.20
3069;DHT22;1545;51.728;8.796;2022-07-25T14:22:08;31.50;52.80
3069;DHT22;1545;51.728;8.796;2022-07-25T14:24:34;31.50;53.50
3069;DHT22;1545;51.728;8.796;2022-07-25T14:27:00;31.30;53.50
3069;DHT22;1545;51.728;8.796;2022-07-25T14:29:25;31.20;53.70
3069;DHT22;1545;51.728;8.796;2022-07-25T14:31:51;31.20;53.40
3069;DHT22;1545;51.728;8.796;2022-07-25T14:34:16;31.10;53.60
3069;DHT22;1545;51.728;8.796;2022-07-25T14:36:42;31.20;53.60
3069;DHT22;1545;51.728;8.796;2022-07-25T14:39:10;31.20;53.30
3069;DHT22;1545;51.728;8.796;2022-07-25T14:41:35;31.20;53.40
3069;DHT22;1545;51.728;8.796;2022-07-25T14:44:01;31.40;53.20
3069;DHT22;1545;51.728;8.796;2022-07-25T14:46:27;31.70;52.60
3069;DHT22;1545;51.728;8.796;2022-07-25T14:48:52;31.40;52.90
3069;DHT22;1545;51.728;8.796;2022-07-25T14:51:19;31.30;53.20
3069;DHT22;1545;51.728;8.796;2022-07-25T14:53:44;30.90;54.00
3069;DHT22;1545;51.728;8.796;2022-07-25T14:56:11;30.60;54.10
3069;DHT22;1545;51.728;8.796;2022-07-25T14:58:37;30.60;54.70
3069;DHT22;1545;51.728;8.796;2022-07-25T15:01:03;30.30;55.00
3069;DHT22;1545;51.728;8.796;2022-07-25T15:03:29;30.20;56.70
3069;DHT22;1545;51.728;8.796;2022-07-25T15:05:54;30.20;55.80
3069;DHT22;1545;51.728;8.796;2022-07-25T15:08:20;30.30;55.10
3069;DHT22;1545;51.728;8.796;2022-07-25T15:10:45;30.30;54.70
3069;DHT22;1545;51.728;8.796;2022-07-25T15:13:11;30.10;54.80
3069;DHT22;1545;51.728;8.796;2022-07-25T15:15:37;30.00;54.80
3069;DHT22;1545;51.728;8.796;2022-07-25T15:18:02;30.10;54.70
3069;DHT22;1545;51.728;8.796;2022-07-25T15:20:28;30.10;54.80
3069;DHT22;1545;51.728;8.796;2022-07-25T15:22:53;30.30;54.30
3069;DHT22;1545;51.728;8.796;2022-07-25T15:25:19;30.30;53.80
3069;DHT22;1545;51.728;8.796;2022-07-25T15:27:45;30.20;53.90
3069;DHT22;1545;51.728;8.796;2022-07-25T15:30:12;30.20;54.10
3069;DHT22;1545;51.728;8.796;2022-07-25T15:32:38;30.10;54.30
3069;DHT22;1545;51.728;8.796;2022-07-25T15:35:04;29.90;54.50
3069;DHT22;1545;51.728;8.796;2022-07-25T15:37:30;29.70;55.00
3069;DHT22;1545;51.728;8.796;2022-07-25T15:39:55;29.60;55.70
3069;DHT22;1545;51.728;8.796;2022-07-25T15:42:21;29.50;55.30
3069;DHT22;1545;51.728;8.796;2022-07-25T15:44:47;29.50;55.40
3069;DHT22;1545;51.728;8.796;2022-07-25T15:47:13;29.50;55.70
3069;DHT22;1545;51.728;8.796;2022-07-25T15:49:39;29.30;56.30
3069;DHT22;1545;51.728;8.796;2022-07-25T15:52:04;29.10;56.70
3069;DHT22;1545;51.728;8.796;2022-07-25T15:54:30;29.00;56.90
3069;DHT22;1545;51.728;8.796;2022-07-25T15:56:55;29.00;57.30
3069;DHT22;1545;51.728;8.796;2022-07-25T15:59:21;29.20;57.10
3069;DHT22;1545;51.728;8.796;2022-07-25T16:01:46;29.30;56.50
3069;DHT22;1545;51.728;8.796;2022-07-25T16:04:12;29.60;56.40
3069;DHT22;1545;51.728;8.796;2022-07-25T16:06:38;29.90;55.90
3069;DHT22;1545;51.728;8.796;2022-07-25T16:09:03;29.80;55.70